Time;durP1;ratioP1;P1;durP2;ratioP2;P2;SDS_P1;SDS_P2;PMS_P1;PMS_P2;Temp;Humidity;BMP_temperature;BMP_pressure;BME280_temperature;BME280_humidity;BME280_pressure;Samples;Min_cycle;Max_cycle;Signal;HPM_P1;HPM_P2
2022/01/25 00:08:49;;;;;;;17.77;10.43;;;;;;;;;;5086026;28;20488;-89
2022/01/25 00:25:11;;;;;;;18.20;11.20;;;-0.90;99.90;;;;;;5092399;23;20498;-90
2022/01/25 00:27:43;;;;;;;15.40;10.20;;;;;;;;;;5021897;28;20482;-90
2022/01/25 00:30:30;;;;;;;18.97;12.30;;;;;;;;;;5074393;23;20523;-89
2022/01/25 00:32:58;;;;;;;21.40;12.30;;;;;;;;;;5081015;23;20490;-90
2022/01/25 00:35:25;;;;;;;17.87;12.47;;;;;;;;;;5081924;23;20496;-90
2022/01/25 00:37:54;;;;;;;21.43;11.83;;;;;;;;;;5051580;28;20454;-90
2022/01/25 00:40:21;;;;;;;18.97;12.37;;;;;;;;;;5050240;28;20440;-89
2022/01/25 00:43:03;;;;;;;19.10;11.20;;;-0.90;99.90;;;;;;5055035;23;20495;-90
2022/01/25 00:45:46;;;;;;;19.33;12.03;;;-1.00;99.90;;;;;;5058312;23;20483;-89
2022/01/25 00:48:19;;;;;;;23.73;13.20;;;;;;;;;;5053056;28;20532;-90
2022/01/25 00:50:46;;;;;;;19.13;11.47;;;;;;;;;;5052176;28;20445;-89
2022/01/25 00:56:00;;;;;;;20.40;11.60;;;;;;;;;;5049489;28;20439;-90
2022/01/25 00:58:27;;;;;;;18.70;11.97;;;;;;;;;;5050218;28;20440;-90
2022/01/25 01:00:56;;;;;;;19.20;11.60;;;;;;;;;;5048523;28;20519;-90
2022/01/25 01:03:23;;;;;;;18.17;11.80;;;;;;;;;;5049733;28;20525;-90
2022/01/25 01:05:51;;;;;;;17.67;11.70;;;;;;;;;;5066647;23;20482;-90
2022/01/25 01:08:22;;;;;;;21.20;11.73;;;;;;;;;;5075620;23;20495;-90
2022/01/25 01:10:49;;;;;;;15.23;10.83;;;;;;;;;;5068249;28;20447;-89
2022/01/25 01:13:49;;;;;;;21.00;11.97;;;;;;;;;;5089419;23;20497;-89
2022/01/25 01:16:43;;;;;;;20.30;12.00;;;;;;;;;;5075754;23;20492;-89
2022/01/25 01:30:22;;;;;;;20.57;12.40;;;-1.30;99.90;;;;;;5060856;28;20505;-90
2022/01/25 01:35:46;;;;;;;25.23;13.63;;;;;;;;;;5073435;23;20930;31
2022/01/25 01:38:52;;;;;;;17.10;11.27;;;;;;;;;;5009056;28;20529;-90
2022/01/25 01:44:02;;;;;;;24.97;13.23;;;;;;;;;;5009855;28;20512;-90
2022/01/25 01:46:35;;;;;;;17.03;10.73;;;;;;;;;;5009300;28;20449;-90
2022/01/25 01:49:05;;;;;;;20.10;12.33;;;;;;;;;;5049956;23;20492;-89
2022/01/25 01:51:39;;;;;;;17.40;11.70;;;-1.30;99.90;;;;;;5037766;23;20519;-90
2022/01/25 01:54:08;;;;;;;19.13;11.93;;;-1.40;99.90;;;;;;5025608;28;20440;-89
2022/01/25 01:56:41;;;;;;;23.13;12.97;;;-1.40;99.90;;;;;;5030793;23;20488;-89
2022/01/25 01:59:10;;;;;;;17.73;11.87;;;-1.40;99.90;;;;;;5029146;28;20456;-89
2022/01/25 02:01:41;;;;;;;18.63;12.43;;;-1.50;99.90;;;;;;5038859;23;20491;-90
2022/01/25 02:04:10;;;;;;;20.13;11.87;;;-1.50;99.90;;;;;;5049273;28;20853;-89
2022/01/25 02:06:37;;;;;;;24.63;13.53;;;;;;;;;;5054429;23;20458;-90
2022/01/25 02:09:05;;;;;;;18.87;10.37;;;-1.50;99.90;;;;;;5046221;28;20466;-89
2022/01/25 02:11:35;;;;;;;18.97;10.93;;;-1.40;99.90;;;;;;5045914;28;20440;-89
2022/01/25 02:14:06;;;;;;;18.53;12.43;;;;;;;;;;5045992;28;20518;-89
2022/01/25 02:16:43;;;;;;;17.47;11.17;;;-1.60;99.90;;;;;;5048075;28;20460;-90
2022/01/25 02:24:46;;;;;;;15.67;11.50;;;-1.60;99.90;;;;;;5081305;23;20532;-89
2022/01/25 02:27:14;;;;;;;17.27;11.00;;;-1.60;99.90;;;;;;5061366;23;20484;-89
2022/01/25 02:29:41;;;;;;;19.00;11.67;;;;;;;;;;5085612;28;20441;-90
2022/01/25 02:32:09;;;;;;;18.43;11.60;;;-1.70;99.90;;;;;;5083870;28;20427;-90
2022/01/25 02:34:36;;;;;;;17.57;11.10;;;;;;;;;;5089553;28;20426;-90
2022/01/25 02:37:07;;;;;;;17.17;10.87;;;-1.70;99.90;;;;;;5088845;28;20442;-91
2022/01/25 02:39:37;;;;;;;18.40;10.50;;;-1.80;99.90;;;;;;5087365;28;20438;-90
2022/01/25 02:42:05;;;;;;;19.90;11.93;;;-1.70;99.90;;;;;;5086783;28;20477;-89
2022/01/25 02:44:34;;;;;;;15.90;10.63;;;;;;;;;;5079013;23;20514;-89
2022/01/25 02:49:48;;;;;;;17.93;11.27;;;;;;;;;;5046495;28;20517;-90
2022/01/25 02:52:16;;;;;;;22.10;11.73;;;-1.70;99.90;;;;;;5046152;28;20464;-90
2022/01/25 02:54:43;;;;;;;18.37;11.10;;;;;;;;;;5046944;28;20440;-90
2022/01/25 02:57:10;;;;;;;18.93;11.23;;;;;;;;;;5048114;28;20940;-89
2022/01/25 02:59:37;;;;;;;18.50;10.17;;;;;;;;;;5047602;28;20451;-90
2022/01/25 03:02:05;;;;;;;20.00;12.07;;;;;;;;;;5055192;28;20436;-89
2022/01/25 03:04:32;;;;;;;18.43;11.70;;;;;;;;;;5058005;28;20456;-89
2022/01/25 03:06:59;;;;;;;18.93;11.27;;;;;;;;;;5045207;28;20432;-91
2022/01/25 03:09:27;;;;;;;19.23;11.97;;;-1.80;99.90;;;;;;5044550;28;20441;-89
2022/01/25 03:11:56;;;;;;;20.93;11.27;;;;;;;;;;5044251;28;20432;-90
2022/01/25 03:14:27;;;;;;;18.60;10.90;;;;;;;;;;5044246;28;20535;-90
2022/01/25 03:17:07;;;;;;;18.13;11.00;;;;;;;;;;5044031;28;20448;-90
2022/01/25 03:20:01;;;;;;;27.77;12.70;;;;;;;;;;5043087;28;20445;-90
2022/01/25 03:22:44;;;;;;;15.07;10.70;;;;;;;;;;5043556;28;20468;-89
2022/01/25 03:25:13;;;;;;;21.90;11.40;;;;;;;;;;5045065;28;20448;-90
2022/01/25 03:27:40;;;;;;;20.10;11.70;;;;;;;;;;5043286;28;20458;-89
2022/01/25 03:30:08;;;;;;;18.10;11.10;;;-2.10;99.90;;;;;;5044340;28;20444;-89
2022/01/25 03:32:35;;;;;;;20.27;12.57;;;;;;;;;;5043806;28;20912;-88
2022/01/25 03:35:03;;;;;;;20.17;12.03;;;;;;;;;;5040179;28;20448;-90
2022/01/25 03:37:30;;;;;;;19.13;11.80;;;;;;;;;;5041594;28;20455;-89
2022/01/25 03:39:57;;;;;;;17.33;10.70;;;;;;;;;;5042825;28;20455;-90
2022/01/25 03:42:25;;;;;;;19.57;11.53;;;-2.10;99.90;;;;;;5043688;28;20452;-90
2022/01/25 03:44:55;;;;;;;21.23;11.80;;;;;;;;;;5041677;28;20526;-89
2022/01/25 03:47:31;;;;;;;20.93;12.10;;;;;;;;;;5039169;28;20466;-88
2022/01/25 03:49:57;;;;;;;17.00;10.73;;;;;;;;;;5042911;28;20484;-89
2022/01/25 03:52:29;;;;;;;19.20;11.50;;;-2.00;99.90;;;;;;5043100;28;20452;-90
2022/01/25 03:54:57;;;;;;;18.03;11.37;;;;;;;;;;5042394;28;20452;-89
2022/01/25 03:57:26;;;;;;;20.90;11.80;;;;;;;;;;5042752;28;20440;-90
2022/01/25 03:59:53;;;;;;;21.90;12.10;;;;;;;;;;5043820;28;20452;-91
2022/01/25 04:02:20;;;;;;;19.83;12.10;;;;;;;;;;5043912;28;20440;-90
2022/01/25 04:04:48;;;;;;;21.23;12.50;;;;;;;;;;5046019;28;20506;-88
2022/01/25 04:07:24;;;;;;;22.17;11.90;;;;;;;;;;5045702;28;20940;-90
2022/01/25 04:09:51;;;;;;;22.50;11.30;;;;;;;;;;5045426;28;20916;-90
2022/01/25 04:12:19;;;;;;;20.43;11.33;;;;;;;;;;5045268;28;20451;-89
2022/01/25 04:14:47;;;;;;;20.00;12.50;;;-2.20;99.90;;;;;;5045343;28;20460;-89
2022/01/25 04:17:19;;;;;;;21.77;12.53;;;;;;;;;;5044033;28;20436;-90
2022/01/25 04:20:07;;;;;;;24.10;11.93;;;;;;;;;;5044331;28;20792;-90
2022/01/25 04:25:18;;;;;;;18.33;12.27;;;;;;;;;;5044461;28;20500;-89
2022/01/25 04:27:45;;;;;;;22.83;12.50;;;;;;;;;;5043913;28;20424;-88
2022/01/25 04:30:13;;;;;;;19.20;11.73;;;-2.20;99.90;;;;;;5044260;28;20471;-90
2022/01/25 04:32:49;;;;;;;17.77;11.40;;;;;;;;;;5044183;28;20444;-89
2022/01/25 04:35:29;;;;;;;21.13;12.70;;;-2.20;99.90;;;;;;5043870;28;20773;-89
2022/01/25 04:49:10;;;;;;;18.93;12.00;;;;;;;;;;5084288;28;20433;-89
2022/01/25 04:57:17;;;;;;;20.83;13.00;;;-2.20;99.90;;;;;;5071465;23;20512;-89
2022/01/25 04:59:50;;;;;;;21.70;11.93;;;;;;;;;;5046011;28;20523;-89
2022/01/25 05:02:29;;;;;;;18.00;11.50;;;-2.20;99.90;;;;;;5045128;28;20444;-89
2022/01/25 05:05:01;;;;;;;21.27;12.20;;;;;;;;;;5041643;28;20499;-88
2022/01/25 05:07:35;;;;;;;21.40;12.37;;;-2.00;99.90;;;;;;5027321;28;20436;-89
2022/01/25 05:10:03;;;;;;;21.30;13.87;;;;;;;;;;5045592;28;20452;-90
2022/01/25 05:12:39;;;;;;;21.27;12.60;;;;;;;;;;5045784;28;20439;-89
2022/01/25 05:15:20;;;;;;;18.90;12.43;;;-2.00;99.90;;;;;;5042707;28;20556;-88
2022/01/25 05:18:01;;;;;;;22.30;13.60;;;-2.20;99.90;;;;;;5045864;28;20515;-90
2022/01/25 05:23:16;;;;;;;20.70;12.17;;;-2.20;99.90;;;;;;5048360;28;20499;-90
2022/01/25 05:25:43;;;;;;;19.83;11.70;;;;;;;;;;5047942;28;20440;-89
2022/01/25 05:28:11;;;;;;;22.20;12.60;;;;;;;;;;5056689;23;20459;-89
2022/01/25 05:30:38;;;;;;;23.77;13.70;;;;;;;;;;5045664;28;20463;-90
2022/01/25 05:33:07;;;;;;;22.47;12.33;;;;;;;;;;5055506;23;20434;-90
2022/01/25 05:35:34;;;;;;;20.83;12.83;;;;;;;;;;5049103;28;20470;-91
2022/01/25 05:38:02;;;;;;;23.27;13.40;;;;;;;;;;5048702;28;20448;-89
2022/01/25 05:40:42;;;;;;;20.70;12.70;;;;;;;;;;5051485;28;20435;-90
2022/01/25 05:46:01;;;;;;;19.60;12.27;;;;;;;;;;5050722;28;20443;-89
2022/01/25 05:48:32;;;;;;;18.80;11.27;;;-2.40;99.90;;;;;;5050820;28;20439;-90
2022/01/25 05:50:59;;;;;;;24.57;13.00;;;;;;;;;;5049616;28;20433;-89
2022/01/25 05:53:26;;;;;;;20.30;12.57;;;;;;;;;;5047530;28;20444;-90
2022/01/25 05:55:54;;;;;;;19.37;13.27;;;;;;;;;;5046117;28;20439;-88
2022/01/25 05:58:21;;;;;;;18.17;12.33;;;-2.40;99.90;;;;;;5045311;28;20822;-91
2022/01/25 06:00:49;;;;;;;27.80;14.60;;;;;;;;;;5078305;23;20501;-90
2022/01/25 06:03:16;;;;;;;21.13;12.80;;;;;;;;;;5085946;28;20466;-89
2022/01/25 06:05:44;;;;;;;32.63;17.43;;;-2.40;99.90;;;;;;5086765;28;20449;-90
2022/01/25 06:08:12;;;;;;;25.73;17.30;;;;;;;;;;5082372;28;20489;-90
2022/01/25 06:10:41;;;;;;;27.23;17.87;;;;;;;;;;5085431;28;20450;-89
2022/01/25 06:13:08;;;;;;;23.33;15.00;;;;;;;;;;5088593;28;20442;-89
2022/01/25 06:15:38;;;;;;;28.60;16.50;;;-2.40;99.90;;;;;;5062775;23;20491;-90
2022/01/25 06:18:05;;;;;;;29.77;18.50;;;;;;;;;;5047285;28;21058;-90
2022/01/25 06:20:36;;;;;;;22.93;14.63;;;-2.50;99.90;;;;;;5051719;23;21014;-88
2022/01/25 06:23:05;;;;;;;29.23;17.80;;;-2.40;99.90;;;;;;5049864;28;20436;-88
2022/01/25 06:25:34;;;;;;;29.10;16.60;;;;;;;;;;5047052;28;20844;-89
2022/01/25 06:28:01;;;;;;;28.33;16.97;;;;;;;;;;5044217;28;20483;-88
2022/01/25 06:30:28;;;;;;;23.23;14.17;;;;;;;;;;5040739;28;20457;-89
2022/01/25 06:32:55;;;;;;;30.40;16.10;;;;;;;;;;5044301;28;20455;-89
2022/01/25 06:35:22;;;;;;;26.60;15.80;;;;;;;;;;5043966;28;20470;-88
2022/01/25 06:37:50;;;;;;;33.17;16.40;;;;;;;;;;5041745;28;20778;-89
2022/01/25 06:40:18;;;;;;;26.70;15.10;;;-2.50;99.90;;;;;;5042793;28;20459;-89
2022/01/25 06:42:45;;;;;;;28.17;15.70;;;;;;;;;;5043167;28;20604;-91
2022/01/25 06:45:15;;;;;;;30.00;15.37;;;;;;;;;;5039581;28;20518;-88
2022/01/25 06:47:43;;;;;;;23.33;14.03;;;-2.40;99.90;;;;;;5044324;28;20463;-89
2022/01/25 06:50:14;;;;;;;25.10;15.67;;;-2.50;99.90;;;;;;5043940;28;20423;-89
2022/01/25 06:52:42;;;;;;;24.80;14.40;;;;;;;;;;5044118;28;20455;-89
2022/01/25 06:55:11;;;;;;;24.80;14.20;;;-2.50;99.90;;;;;;5047373;28;20460;-90
2022/01/25 06:57:41;;;;;;;26.67;14.83;;;;;;;;;;5049253;28;20452;-89
2022/01/25 07:00:12;;;;;;;29.87;16.10;;;-2.60;99.90;;;;;;5040206;28;20459;-89
2022/01/25 07:02:39;;;;;;;23.57;14.70;;;;;;;;;;5041966;28;20471;-91
2022/01/25 07:05:07;;;;;;;22.70;14.20;;;;;;;;;;5047275;28;20475;-88
2022/01/25 07:07:34;;;;;;;24.17;14.17;;;;;;;;;;5041309;28;20458;-90
2022/01/25 07:10:01;;;;;;;27.63;16.07;;;;;;;;;;5035303;28;20441;-88
2022/01/25 07:12:29;;;;;;;23.70;14.73;;;;;;;;;;5027238;28;20966;-89
2022/01/25 07:14:57;;;;;;;33.93;17.40;;;-2.50;99.90;;;;;;5027015;28;20465;-89
2022/01/25 07:17:24;;;;;;;29.23;15.00;;;-2.50;99.90;;;;;;5028877;28;20813;-90
2022/01/25 07:19:51;;;;;;;24.47;14.70;;;;;;;;;;5027554;28;20460;-89
2022/01/25 07:22:21;;;;;;;29.77;16.07;;;;;;;;;;5028144;28;20437;-91
2022/01/25 07:24:48;;;;;;;31.97;17.43;;;;;;;;;;5026355;28;20511;-91
2022/01/25 07:27:16;;;;;;;27.03;13.60;;;;;;;;;;5028683;28;20452;-90
2022/01/25 07:29:43;;;;;;;25.00;14.00;;;;;;;;;;5072845;23;20854;-89
2022/01/25 07:32:12;;;;;;;34.83;15.33;;;;;;;;;;5068417;28;20466;-89
2022/01/25 07:34:39;;;;;;;35.13;16.00;;;;;;;;;;5068701;28;20435;-89
2022/01/25 07:37:06;;;;;;;28.57;17.40;;;;;;;;;;5071011;28;20447;-89
2022/01/25 07:39:33;;;;;;;28.27;15.97;;;;;;;;;;5063277;28;20814;-90
2022/01/25 07:42:00;;;;;;;26.33;14.70;;;;;;;;;;5066136;28;20446;-89
2022/01/25 07:44:31;;;;;;;26.10;15.00;;;-2.00;99.90;;;;;;5068272;28;20479;-88
2022/01/25 07:47:00;;;;;;;28.57;15.87;;;;;;;;;;5064254;28;20455;-88
2022/01/25 07:49:29;;;;;;;31.23;16.40;;;;;;;;;;5066487;28;20972;-88
2022/01/25 07:51:56;;;;;;;35.07;19.00;;;;;;;;;;5067485;28;20943;-90
2022/01/25 07:54:24;;;;;;;29.10;15.90;;;;;;;;;;5070472;23;20451;-89
2022/01/25 07:56:51;;;;;;;29.67;16.43;;;;;;;;;;5047415;28;20439;-90
2022/01/25 07:59:18;;;;;;;29.40;16.00;;;;;;;;;;5041823;28;20444;-88
2022/01/25 08:01:45;;;;;;;29.97;17.33;;;;;;;;;;5040260;28;20448;-88
2022/01/25 08:04:13;;;;;;;36.90;18.50;;;;;;;;;;5041852;28;20483;-91
2022/01/25 08:06:42;;;;;;;34.80;17.87;;;;;;;;;;5040542;28;20432;-91
2022/01/25 08:09:09;;;;;;;29.20;17.47;;;-0.80;99.90;;;;;;5040611;28;20440;-91
2022/01/25 08:11:36;;;;;;;30.63;16.67;;;;;;;;;;5038551;28;20452;-90
2022/01/25 08:14:12;;;;;;;27.80;16.13;;;;;;;;;;5044581;28;20452;-90
2022/01/25 08:16:39;;;;;;;31.03;16.70;;;;;;;;;;5038583;28;20479;-90
2022/01/25 08:19:07;;;;;;;26.73;17.17;;;;;;;;;;5041781;28;20444;-90
2022/01/25 08:21:36;;;;;;;39.23;18.83;;;;;;;;;;5039160;28;20799;-90
2022/01/25 08:24:05;;;;;;;32.33;18.60;;;1.40;99.90;;;;;;5040465;28;20472;-90
2022/01/25 08:26:32;;;;;;;22.53;16.00;;;;;;;;;;5032228;28;20452;-93
2022/01/25 08:28:59;;;;;;;23.37;14.27;;;;;;;;;;5036817;28;20452;-88
2022/01/25 08:31:27;;;;;;;19.17;14.10;;;;;;;;;;5031470;28;20514;-89
2022/01/25 08:33:54;;;;;;;24.50;14.00;;;;;;;;;;5042680;28;20897;-88
2022/01/25 08:36:21;;;;;;;24.40;14.07;;;;;;;;;;5038160;28;20451;-89
2022/01/25 08:38:50;;;;;;;21.90;15.03;;;;;;;;;;5032328;28;21150;-91
2022/01/25 08:41:18;;;;;;;26.07;14.07;;;;;;;;;;5037040;28;20467;-88
2022/01/25 08:43:46;;;;;;;21.80;13.83;;;;;;;;;;5037868;28;20450;-92
2022/01/25 08:46:18;;;;;;;21.03;14.00;;;4.40;99.90;;;;;;5038821;28;20493;-92
2022/01/25 08:48:57;;;;;;;19.00;13.03;;;;;;;;;;4997697;28;20449;-92
2022/01/25 08:51:25;;;;;;;18.57;13.07;;;;;;;;;;4995415;28;20457;-94
2022/01/25 08:53:54;;;;;;;17.77;13.20;;;5.60;99.90;;;;;;4995735;28;20465;-92
2022/01/25 08:56:41;;;;;;;17.40;13.63;;;;;;;;;;5029850;23;21434;-91
2022/01/25 08:59:09;;;;;;;19.23;13.97;;;;;;;;;;5006081;28;20466;-91
2022/01/25 09:01:37;;;;;;;22.03;14.10;;;;;;;;;;4998573;28;20462;-88
2022/01/25 09:04:04;;;;;;;20.03;14.90;;;;;;;;;;4997080;28;20462;-90
2022/01/25 09:06:40;;;;;;;22.83;15.70;;;;;;;;;;4997838;28;20472;-89
2022/01/25 09:09:10;;;;;;;16.57;13.50;;;6.20;99.90;;;;;;4997794;28;20449;-90
2022/01/25 09:11:39;;;;;;;18.00;14.30;;;7.10;99.90;;;;;;4996382;28;20435;-93
2022/01/25 09:14:06;;;;;;;20.20;13.83;;;7.50;99.90;;;;;;4991552;28;20459;-92
2022/01/25 09:16:35;;;;;;;18.37;14.63;;;8.10;99.90;;;;;;4994308;28;20445;-91
2022/01/25 09:19:05;;;;;;;19.50;14.50;;;7.70;99.90;;;;;;4994463;28;20450;-92
2022/01/25 09:21:33;;;;;;;20.50;14.10;;;;;;;;;;4997815;28;20432;-92
2022/01/25 09:24:00;;;;;;;18.40;13.83;;;;;;;;;;4999962;28;20465;-92
2022/01/25 09:26:27;;;;;;;17.37;12.33;;;;;;;;;;4995198;28;20459;-93
2022/01/25 09:28:55;;;;;;;15.50;11.20;;;;;;;;;;4998767;28;20437;-93
2022/01/25 09:31:22;;;;;;;14.33;11.67;;;;;;;;;;4997876;28;20488;-91
2022/01/25 09:33:51;;;;;;;12.17;10.70;;;6.10;99.90;;;;;;4998180;28;20942;-92
2022/01/25 09:36:20;;;;;;;14.90;11.50;;;;;;;;;;4997637;28;20450;-91
2022/01/25 09:38:47;;;;;;;14.13;10.43;;;;;;;;;;4998558;28;20440;-91
2022/01/25 09:41:15;;;;;;;19.80;12.70;;;;;;;;;;4998964;28;20981;-89
2022/01/25 09:43:42;;;;;;;14.93;10.70;;;;;;;;;;4995167;28;20499;-90
2022/01/25 09:46:10;;;;;;;14.87;10.27;;;6.90;99.90;;;;;;4996857;28;20499;-89
2022/01/25 09:48:38;;;;;;;14.53;11.37;;;;;;;;;;4999456;28;20459;-93
2022/01/25 09:51:09;;;;;;;16.33;11.33;;;7.40;99.90;;;;;;5017467;28;20461;-89
2022/01/25 09:53:37;;;;;;;15.37;11.60;;;;;;;;;;5017737;28;20436;-90
2022/01/25 09:56:04;;;;;;;15.37;12.27;;;;;;;;;;5017469;28;20539;-91
2022/01/25 09:58:31;;;;;;;14.63;11.67;;;;;;;;;;5017615;28;20453;-92
2022/01/25 10:01:01;;;;;;;14.10;11.27;;;8.10;99.90;;;;;;5017010;28;20440;-91
2022/01/25 10:03:33;;;;;;;19.80;10.80;;;;;;;;;;5015666;28;20438;-91
2022/01/25 10:06:01;;;;;;;14.97;11.20;;;;;;;;;;4997424;28;20501;-90
2022/01/25 10:08:33;;;;;;;17.03;13.57;;;8.70;99.90;;;;;;4996854;28;20872;-91
2022/01/25 10:11:02;;;;;;;15.37;12.77;;;9.50;98.80;;;;;;4997176;28;20459;-92
2022/01/25 10:13:30;;;;;;;23.10;13.83;;;9.50;99.20;;;;;;4998102;28;20461;-92
2022/01/25 10:16:02;;;;;;;17.20;13.37;;;10.40;97.70;;;;;;5000990;28;20467;-92
2022/01/25 10:18:41;;;;;;;18.30;13.60;;;10.10;97.50;;;;;;5002806;28;20457;-94
2022/01/25 10:21:12;;;;;;;18.07;13.53;;;;;;;;;;5004873;28;20488;-91
2022/01/25 10:23:46;;;;;;;15.27;12.50;;;;;;;;;;5002323;28;20452;-91
2022/01/25 10:26:13;;;;;;;15.67;12.70;;;;;;;;;;4994028;28;20485;-90
2022/01/25 10:28:40;;;;;;;15.73;12.30;;;;;;;;;;4997543;28;20442;-91
2022/01/25 10:31:08;;;;;;;17.60;13.37;;;;;;;;;;4997862;28;20472;-91
2022/01/25 10:33:38;;;;;;;15.87;12.20;;;10.20;97.90;;;;;;4998120;28;20447;-94
2022/01/25 10:36:14;;;;;;;16.97;12.80;;;10.00;97.00;;;;;;4997828;28;20453;-93
2022/01/25 10:38:45;;;;;;;16.07;13.07;;;9.90;98.60;;;;;;4999393;28;20433;-90
2022/01/25 10:41:15;;;;;;;17.67;12.60;;;9.30;98.60;;;;;;4999468;28;20441;-91
2022/01/25 10:43:44;;;;;;;14.40;11.57;;;9.70;99.00;;;;;;5000093;28;20457;-91
2022/01/25 10:46:16;;;;;;;14.97;12.60;;;9.90;98.60;;;;;;4995769;28;20492;-91
2022/01/25 10:48:46;;;;;;;14.43;12.63;;;9.20;99.20;;;;;;4996951;28;20452;-90
2022/01/25 10:51:15;;;;;;;16.20;13.30;;;10.30;97.30;;;;;;4996490;28;20468;-91
2022/01/25 10:53:44;;;;;;;20.20;13.80;;;10.40;98.00;;;;;;4993768;28;20468;-91
2022/01/25 10:56:11;;;;;;;15.57;13.60;;;10.30;97.60;;;;;;4997505;28;20525;-90
2022/01/25 10:58:40;;;;;;;17.10;13.77;;;10.80;98.80;;;;;;4996628;28;20930;-89
2022/01/25 11:01:10;;;;;;;19.00;13.97;;;10.60;99.80;;;;;;4997800;28;20938;-90
2022/01/25 11:03:39;;;;;;;18.60;14.30;;;9.80;99.90;;;;;;5001891;28;20446;-90
2022/01/25 11:06:13;;;;;;;16.50;13.40;;;9.70;99.90;;;;;;4999933;28;20508;-89
2022/01/25 11:08:41;;;;;;;18.93;13.40;;;10.70;99.60;;;;;;5000931;28;20456;-89
2022/01/25 11:11:11;;;;;;;18.37;14.40;;;;;;;;;;4999258;28;20472;-90
2022/01/25 11:13:42;;;;;;;16.70;13.20;;;;;;;;;;4999710;28;20453;-88
2022/01/25 11:16:10;;;;;;;18.67;14.47;;;10.30;98.10;;;;;;5000248;28;20457;-88
2022/01/25 11:18:38;;;;;;;22.20;16.00;;;;;;;;;;4999733;28;20425;-87
2022/01/25 11:21:07;;;;;;;24.77;17.67;;;10.10;98.90;;;;;;5000792;28;20448;-89
2022/01/25 11:23:36;;;;;;;24.47;16.90;;;10.70;97.90;;;;;;4995694;28;20946;-90
2022/01/25 11:26:05;;;;;;;21.00;17.10;;;9.50;99.10;;;;;;4992687;28;20490;-89
2022/01/25 11:28:35;;;;;;;26.20;18.90;;;9.50;99.50;;;;;;4996539;28;20451;-87
2022/01/25 11:31:06;;;;;;;24.80;18.77;;;10.50;99.20;;;;;;4996472;28;20460;-87
2022/01/25 11:33:33;;;;;;;25.40;19.10;;;;;;;;;;4998076;28;20457;-90
2022/01/25 11:36:01;;;;;;;23.07;18.43;;;;;;;;;;4998100;28;20506;-90
2022/01/25 11:38:33;;;;;;;28.50;21.30;;;8.90;99.30;;;;;;4995752;28;20860;-90
2022/01/25 11:41:00;;;;;;;21.67;17.83;;;;;;;;;;4995891;28;20459;-90
2022/01/25 11:43:28;;;;;;;26.33;19.33;;;;;;;;;;4994956;28;20534;-91
2022/01/25 11:46:05;;;;;;;26.43;19.13;;;9.70;99.40;;;;;;4995390;28;20500;-91
2022/01/25 11:48:44;;;;;;;29.40;20.07;;;10.40;98.10;;;;;;4995489;28;20452;-90
2022/01/25 11:51:18;;;;;;;24.77;18.83;;;10.40;97.20;;;;;;4995562;28;20484;-90
2022/01/25 11:53:47;;;;;;;25.67;19.07;;;11.20;97.70;;;;;;4995037;28;20467;-88
2022/01/25 11:56:15;;;;;;;25.40;19.60;;;10.00;97.30;;;;;;5002402;28;20497;-91
2022/01/25 11:58:42;;;;;;;24.17;17.10;;;;;;;;;;4998529;28;20454;-92
2022/01/25 12:01:19;;;;;;;25.80;17.37;;;;;;;;;;4996659;28;20817;-91
2022/01/25 12:03:48;;;;;;;22.10;17.57;;;9.70;98.80;;;;;;5001381;28;20467;-91
2022/01/25 12:06:23;;;;;;;24.23;17.73;;;9.00;99.90;;;;;;5007261;28;20458;-91
2022/01/25 12:11:59;;;;;;;24.17;18.10;;;10.10;99.30;;;;;;5000446;28;20873;-91
2022/01/25 12:14:30;;;;;;;23.80;17.60;;;10.30;99.10;;;;;;5045870;23;20492;-91
2022/01/25 12:17:00;;;;;;;24.57;18.63;;;;;;;;;;5005294;28;20460;-92
2022/01/25 12:19:48;;;;;;;23.50;17.53;;;;;;;;;;5008570;28;20457;-95
2022/01/25 12:22:19;;;;;;;22.47;17.67;;;;;;;;;;5006553;28;20437;-95
2022/01/25 12:25:03;;;;;;;27.53;18.13;;;;;;;;;;5004391;28;20509;-93
2022/01/25 12:30:39;;;;;;;27.40;20.20;;;;;;;;;;5090065;23;20876;-94
2022/01/25 12:33:15;;;;;;;28.63;18.20;;;;;;;;;;5086101;28;20535;-94
2022/01/25 12:35:45;;;;;;;28.13;19.93;;;;;;;;;;5098003;23;20499;-95
2022/01/25 12:38:15;;;;;;;26.87;20.60;;;8.90;99.90;;;;;;5082466;28;20440;-96
2022/01/25 12:41:03;;;;;;;26.43;19.10;;;9.30;99.90;;;;;;5074861;28;20451;-92
2022/01/25 12:43:34;;;;;;;27.23;20.00;;;9.40;99.90;;;;;;5077759;28;20482;-92
2022/01/25 12:46:05;;;;;;;32.67;21.33;;;9.20;99.90;;;;;;5081751;28;20477;-93
2022/01/25 12:48:57;;;;;;;30.80;22.00;;;;;;;;;;5086030;28;20515;-94
2022/01/25 12:54:28;;;;;;;29.70;21.23;;;;;;;;;;5091303;23;20505;-94
2022/01/25 12:56:57;;;;;;;26.00;20.30;;;;;;;;;;5086824;28;20460;-92
2022/01/25 12:59:27;;;;;;;28.10;21.77;;;10.30;99.80;;;;;;5077080;28;20794;-92
2022/01/25 13:01:58;;;;;;;32.47;23.73;;;;;;;;;;5080411;23;20514;-95
2022/01/25 13:04:26;;;;;;;29.87;21.20;;;;;;;;;;5079458;28;20476;-92
2022/01/25 13:06:53;;;;;;;32.00;22.40;;;;;;;;;;5086667;28;20492;-94
2022/01/25 13:09:27;;;;;;;33.73;22.67;;;10.00;99.90;;;;;;5082232;28;20456;-93
2022/01/25 13:12:13;;;;;;;32.10;21.50;;;10.10;99.90;;;;;;5085943;28;20431;-93
2022/01/25 13:14:50;;;;;;;29.50;21.23;;;9.50;99.90;;;;;;5080818;28;20971;-93
2022/01/25 13:17:18;;;;;;;28.40;19.93;;;9.30;99.90;;;;;;5081165;28;20453;-93
2022/01/25 13:19:51;;;;;;;28.03;20.23;;;9.30;99.90;;;;;;5083912;28;20444;-93
2022/01/25 13:22:25;;;;;;;31.80;21.80;;;9.80;99.90;;;;;;5081112;28;20457;-94
2022/01/25 13:24:59;;;;;;;29.10;21.07;;;9.10;99.90;;;;;;5093777;23;20593;-93
2022/01/25 13:27:30;;;;;;;28.50;20.40;;;9.60;99.90;;;;;;5058009;28;20496;-95
2022/01/25 13:32:43;;;;;;;31.13;21.50;;;9.60;99.90;;;;;;5054075;28;20509;-93
2022/01/25 13:35:29;;;;;;;26.53;20.63;;;10.00;99.60;;;;;;5058183;28;20517;-93
2022/01/25 13:38:07;;;;;;;25.87;19.93;;;10.20;99.30;;;;;;5065616;28;20422;-95
2022/01/25 13:40:46;;;;;;;25.13;19.73;;;9.80;99.90;;;;;;5065819;28;20449;-92
2022/01/25 13:46:13;;;;;;;28.70;20.43;;;;;;;;;;5062641;28;20489;-95
2022/01/25 13:48:41;;;;;;;28.30;21.20;;;;;;;;;;5065952;28;20461;-94
2022/01/25 13:51:17;;;;;;;29.10;20.20;;;9.40;99.90;;;;;;5064027;28;20456;-94
2022/01/25 13:54:15;;;;;;;25.07;18.87;;;9.00;99.90;;;;;;5069865;28;20473;-94
2022/01/25 13:56:47;;;;;;;27.50;19.13;;;9.90;99.90;;;;;;5035433;28;20446;-94
2022/01/25 13:59:17;;;;;;;25.53;18.80;;;10.30;99.40;;;;;;5068668;28;20454;-93
2022/01/25 14:01:44;;;;;;;26.10;19.40;;;;;;;;;;5069541;28;20481;-94
2022/01/25 14:04:18;;;;;;;29.43;19.63;;;10.00;99.00;;;;;;5070252;28;20433;-94
2022/01/25 14:07:06;;;;;;;28.03;20.20;;;;;;;;;;5084875;23;20516;-94
2022/01/25 14:09:36;;;;;;;24.30;16.47;;;;;;;;;;5069910;28;20456;-95
2022/01/25 14:23:27;;;;;;;29.83;21.93;;;;;;;;;;5098441;23;20488;-93
2022/01/25 14:26:02;;;;;;;29.37;20.57;;;9.40;99.90;;;;;;5093523;28;20978;-94
2022/01/25 14:28:41;;;;;;;23.60;18.23;;;9.00;99.90;;;;;;5096558;23;20503;-94
2022/01/25 14:31:20;;;;;;;26.20;19.00;;;8.90;99.90;;;;;;5094403;28;20459;-94
2022/01/25 14:33:52;;;;;;;29.90;20.00;;;9.20;99.90;;;;;;5095087;28;20488;-94
2022/01/25 14:36:23;;;;;;;30.73;20.37;;;9.30;99.90;;;;;;5094999;28;20413;-94
2022/01/25 14:38:54;;;;;;;26.67;19.57;;;9.30;99.90;;;;;;5090324;23;20523;-94
2022/01/25 14:41:29;;;;;;;28.67;21.00;;;9.10;99.90;;;;;;5074533;28;20461;-94
2022/01/25 14:44:06;;;;;;;28.20;18.57;;;9.20;99.90;;;;;;5091214;23;20492;-93
2022/01/25 14:50:02;;;;;;;31.33;21.70;;;9.00;99.90;;;;;;5095895;28;20453;-94
2022/01/25 14:52:32;;;;;;;35.30;22.00;;;;;;;;;;5102623;23;20483;-94
2022/01/25 14:55:07;;;;;;;32.00;21.80;;;;;;;;;;5090940;23;20491;-94
2022/01/25 14:57:50;;;;;;;28.93;20.03;;;;;;;;;;5096421;28;20449;-93
2022/01/25 15:03:08;;;;;;;28.77;20.60;;;;;;;;;;5082331;23;20489;-94
2022/01/25 15:05:41;;;;;;;30.17;21.20;;;8.50;99.90;;;;;;5096418;23;20506;-94
2022/01/25 15:08:09;;;;;;;32.17;21.10;;;;;;;;;;5070295;28;20433;-95
2022/01/25 15:10:43;;;;;;;31.57;21.17;;;7.90;99.90;;;;;;5094101;23;20475;-95
2022/01/25 15:13:10;;;;;;;33.07;19.97;;;;;;;;;;5058123;28;20447;-93
2022/01/25 15:15:55;;;;;;;31.10;20.87;;;;;;;;;;5105710;23;21331;-89
2022/01/25 15:18:25;;;;;;;27.17;17.47;;;;;;;;;;5088505;28;20523;-88
2022/01/25 15:20:52;;;;;;;33.40;21.80;;;;;;;;;;5092740;23;20850;-93
2022/01/25 15:23:21;;;;;;;31.40;22.00;;;;;;;;;;5081054;28;20426;-94
2022/01/25 15:25:54;;;;;;;35.50;21.27;;;;;;;;;;5087016;28;20437;-93
2022/01/25 15:28:21;;;;;;;31.47;22.47;;;;;;;;;;5086145;28;20459;-94
2022/01/25 15:30:50;;;;;;;35.10;22.33;;;;;;;;;;5103874;23;20479;31
2022/01/25 15:33:18;;;;;;;32.77;21.97;;;5.50;99.90;;;;;;5064664;28;20466;-93
2022/01/25 15:35:46;;;;;;;34.20;21.23;;;;;;;;;;5069203;28;20439;-93
2022/01/25 15:38:13;;;;;;;29.27;22.67;;;;;;;;;;5047589;28;20791;-93